sensor_id;sensor_type;location;lat;lon;timestamp;temperature;humidity
76345;DHT22;65160;50.504;3.666;2023-02-01T00:01:31;6.90;93.94
76345;DHT22;65160;50.504;3.666;2023-02-01T00:03:56;6.92;93.71
76345;DHT22;65160;50.504;3.666;2023-02-01T00:06:22;6.95;93.68
76345;DHT22;65160;50.504;3.666;2023-02-01T00:08:47;7.01;93.42
76345;DHT22;65160;50.504;3.666;2023-02-01T00:11:13;6.93;93.48
76345;DHT22;65160;50.504;3.666;2023-02-01T00:13:40;6.97;93.47
76345;DHT22;65160;50.504;3.666;2023-02-01T00:16:27;6.97;93.53
76345;DHT22;65160;50.504;3.666;2023-02-01T00:19:03;6.95;93.57
76345;DHT22;65160;50.504;3.666;2023-02-01T00:21:29;6.95;93.47
76345;DHT22;65160;50.504;3.666;2023-02-01T00:23:56;6.95;93.44
76345;DHT22;65160;50.504;3.666;2023-02-01T00:26:36;6.92;93.57
76345;DHT22;65160;50.504;3.666;2023-02-01T00:29:05;6.90;93.60
76345;DHT22;65160;50.504;3.666;2023-02-01T00:31:32;6.95;93.48
76345;DHT22;65160;50.504;3.666;2023-02-01T00:33:57;6.90;93.34
76345;DHT22;65160;50.504;3.666;2023-02-01T00:36:23;6.90;93.09
76345;DHT22;65160;50.504;3.666;2023-02-01T00:38:48;6.82;93.31
76345;DHT22;65160;50.504;3.666;2023-02-01T00:41:19;6.83;92.94
76345;DHT22;65160;50.504;3.666;2023-02-01T00:43:45;6.76;93.02
76345;DHT22;65160;50.504;3.666;2023-02-01T00:46:12;6.71;93.30
76345;DHT22;65160;50.504;3.666;2023-02-01T00:48:38;6.72;93.26
76345;DHT22;65160;50.504;3.666;2023-02-01T00:51:09;6.72;93.04
76345;DHT22;65160;50.504;3.666;2023-02-01T00:53:35;6.71;93.07
76345;DHT22;65160;50.504;3.666;2023-02-01T00:56:01;6.64;93.05
76345;DHT22;65160;50.504;3.666;2023-02-01T00:58:27;6.58;92.88
76345;DHT22;65160;50.504;3.666;2023-02-01T01:01:11;6.58;93.23
76345;DHT22;65160;50.504;3.666;2023-02-01T01:03:42;6.58;92.81
76345;DHT22;65160;50.504;3.666;2023-02-01T01:06:14;6.49;92.92
76345;DHT22;65160;50.504;3.666;2023-02-01T01:08:40;6.49;92.80
76345;DHT22;65160;50.504;3.666;2023-02-01T01:11:13;6.46;92.97
76345;DHT22;65160;50.504;3.666;2023-02-01T01:13:39;6.49;92.70
76345;DHT22;65160;50.504;3.666;2023-02-01T01:16:06;6.55;92.66
76345;DHT22;65160;50.504;3.666;2023-02-01T01:18:32;6.59;91.83
76345;DHT22;65160;50.504;3.666;2023-02-01T01:20:58;6.59;91.30
76345;DHT22;65160;50.504;3.666;2023-02-01T01:23:24;6.62;91.22
76345;DHT22;65160;50.504;3.666;2023-02-01T01:25:50;6.65;91.04
76345;DHT22;65160;50.504;3.666;2023-02-01T01:28:15;6.66;90.20
76345;DHT22;65160;50.504;3.666;2023-02-01T01:30:41;6.61;89.72
76345;DHT22;65160;50.504;3.666;2023-02-01T01:33:06;6.61;89.73
76345;DHT22;65160;50.504;3.666;2023-02-01T01:35:32;6.58;89.51
76345;DHT22;65160;50.504;3.666;2023-02-01T01:37:59;6.52;89.36
76345;DHT22;65160;50.504;3.666;2023-02-01T01:40:26;6.51;90.03
76345;DHT22;65160;50.504;3.666;2023-02-01T01:42:51;6.35;89.79
76345;DHT22;65160;50.504;3.666;2023-02-01T01:45:31;6.37;89.27
76345;DHT22;65160;50.504;3.666;2023-02-01T01:47:59;6.32;89.32
76345;DHT22;65160;50.504;3.666;2023-02-01T01:50:30;6.40;89.76
76345;DHT22;65160;50.504;3.666;2023-02-01T01:53:00;6.37;89.84
76345;DHT22;65160;50.504;3.666;2023-02-01T01:55:27;6.32;89.90
76345;DHT22;65160;50.504;3.666;2023-02-01T01:58:02;6.41;89.59
76345;DHT22;65160;50.504;3.666;2023-02-01T02:00:31;6.44;89.69
76345;DHT22;65160;50.504;3.666;2023-02-01T02:03:00;6.48;89.46
76345;DHT22;65160;50.504;3.666;2023-02-01T02:05:29;6.46;89.18
76345;DHT22;65160;50.504;3.666;2023-02-01T02:07:58;6.46;89.34
76345;DHT22;65160;50.504;3.666;2023-02-01T02:10:24;6.49;89.47
76345;DHT22;65160;50.504;3.666;2023-02-01T02:13:10;6.51;89.10
76345;DHT22;65160;50.504;3.666;2023-02-01T02:15:40;6.53;88.96
76345;DHT22;65160;50.504;3.666;2023-02-01T02:18:38;6.51;88.63
76345;DHT22;65160;50.504;3.666;2023-02-01T02:27:05;6.51;88.57
76345;DHT22;65160;50.504;3.666;2023-02-01T02:32:42;6.42;88.64
76345;DHT22;65160;50.504;3.666;2023-02-01T02:37:42;6.37;88.20
76345;DHT22;65160;50.504;3.666;2023-02-01T02:40:17;6.31;88.54
76345;DHT22;65160;50.504;3.666;2023-02-01T02:43:01;6.27;88.22
76345;DHT22;65160;50.504;3.666;2023-02-01T02:46:00;6.20;88.81
76345;DHT22;65160;50.504;3.666;2023-02-01T02:48:54;6.13;87.43
76345;DHT22;65160;50.504;3.666;2023-02-01T02:51:50;6.18;87.71
76345;DHT22;65160;50.504;3.666;2023-02-01T02:54:46;6.11;87.58
76345;DHT22;65160;50.504;3.666;2023-02-01T02:57:37;6.06;87.80
76345;DHT22;65160;50.504;3.666;2023-02-01T03:00:29;5.97;87.92
76345;DHT22;65160;50.504;3.666;2023-02-01T03:03:14;5.92;88.18
76345;DHT22;65160;50.504;3.666;2023-02-01T03:05:59;5.80;88.77
76345;DHT22;65160;50.504;3.666;2023-02-01T03:08:26;5.73;88.79
76345;DHT22;65160;50.504;3.666;2023-02-01T03:11:13;5.70;88.44
76345;DHT22;65160;50.504;3.666;2023-02-01T03:14:00;5.69;88.05
76345;DHT22;65160;50.504;3.666;2023-02-01T03:16:33;5.55;88.81
76345;DHT22;65160;50.504;3.666;2023-02-01T03:19:05;5.48;88.72
76345;DHT22;65160;50.504;3.666;2023-02-01T03:21:40;5.42;88.75
76345;DHT22;65160;50.504;3.666;2023-02-01T03:27:05;5.35;88.91
76345;DHT22;65160;50.504;3.666;2023-02-01T03:29:42;5.32;88.81
76345;DHT22;65160;50.504;3.666;2023-02-01T03:32:09;5.27;88.45
76345;DHT22;65160;50.504;3.666;2023-02-01T03:34:35;5.21;88.92
76345;DHT22;65160;50.504;3.666;2023-02-01T03:37:06;5.26;88.23
76345;DHT22;65160;50.504;3.666;2023-02-01T03:39:41;5.20;88.34
76345;DHT22;65160;50.504;3.666;2023-02-01T03:42:38;5.20;87.76
76345;DHT22;65160;50.504;3.666;2023-02-01T03:45:15;5.17;87.94
76345;DHT22;65160;50.504;3.666;2023-02-01T03:47:44;5.20;87.84
76345;DHT22;65160;50.504;3.666;2023-02-01T03:50:14;5.18;87.51
76345;DHT22;65160;50.504;3.666;2023-02-01T03:52:47;5.17;87.66
76345;DHT22;65160;50.504;3.666;2023-02-01T03:55:15;5.16;87.43
76345;DHT22;65160;50.504;3.666;2023-02-01T03:57:45;5.20;87.15
76345;DHT22;65160;50.504;3.666;2023-02-01T04:00:20;5.17;87.19
76345;DHT22;65160;50.504;3.666;2023-02-01T04:02:47;5.09;87.70
76345;DHT22;65160;50.504;3.666;2023-02-01T04:05:12;5.07;87.84
76345;DHT22;65160;50.504;3.666;2023-02-01T04:07:38;5.09;87.33
76345;DHT22;65160;50.504;3.666;2023-02-01T04:10:04;5.09;87.05
76345;DHT22;65160;50.504;3.666;2023-02-01T04:12:30;5.18;86.52
76345;DHT22;65160;50.504;3.666;2023-02-01T04:14:55;5.13;86.95
76345;DHT22;65160;50.504;3.666;2023-02-01T04:17:21;5.04;86.97
76345;DHT22;65160;50.504;3.666;2023-02-01T04:19:46;5.01;87.31
76345;DHT22;65160;50.504;3.666;2023-02-01T04:22:11;4.96;87.46
76345;DHT22;65160;50.504;3.666;2023-02-01T04:24:37;4.99;87.29
76345;DHT22;65160;50.504;3.666;2023-02-01T04:27:03;5.00;87.09
76345;DHT22;65160;50.504;3.666;2023-02-01T04:29:29;4.96;87.11
76345;DHT22;65160;50.504;3.666;2023-02-01T04:31:54;4.94;87.13
76345;DHT22;65160;50.504;3.666;2023-02-01T04:34:20;4.94;86.85
76345;DHT22;65160;50.504;3.666;2023-02-01T04:36:48;4.94;86.79
76345;DHT22;65160;50.504;3.666;2023-02-01T04:39:13;4.91;86.73
76345;DHT22;65160;50.504;3.666;2023-02-01T04:41:39;4.89;87.16
76345;DHT22;65160;50.504;3.666;2023-02-01T04:44:04;4.89;87.01
76345;DHT22;65160;50.504;3.666;2023-02-01T04:46:30;4.90;86.75
76345;DHT22;65160;50.504;3.666;2023-02-01T04:48:55;4.87;86.28
76345;DHT22;65160;50.504;3.666;2023-02-01T04:51:21;4.86;86.41
76345;DHT22;65160;50.504;3.666;2023-02-01T04:53:47;4.84;86.51
76345;DHT22;65160;50.504;3.666;2023-02-01T04:56:13;4.80;86.64
76345;DHT22;65160;50.504;3.666;2023-02-01T04:58:38;4.77;86.70
76345;DHT22;65160;50.504;3.666;2023-02-01T05:01:05;4.82;86.64
76345;DHT22;65160;50.504;3.666;2023-02-01T05:03:34;4.76;86.73
76345;DHT22;65160;50.504;3.666;2023-02-01T05:05:59;4.77;86.89
76345;DHT22;65160;50.504;3.666;2023-02-01T05:08:26;4.69;86.94
76345;DHT22;65160;50.504;3.666;2023-02-01T05:10:52;4.76;86.68
76345;DHT22;65160;50.504;3.666;2023-02-01T05:13:18;4.72;86.84
76345;DHT22;65160;50.504;3.666;2023-02-01T05:16:02;4.72;87.04
76345;DHT22;65160;50.504;3.666;2023-02-01T05:18:27;4.69;87.26
76345;DHT22;65160;50.504;3.666;2023-02-01T05:20:53;4.66;87.37
76345;DHT22;65160;50.504;3.666;2023-02-01T05:23:18;4.65;87.25
76345;DHT22;65160;50.504;3.666;2023-02-01T05:25:44;4.59;87.64
76345;DHT22;65160;50.504;3.666;2023-02-01T05:28:09;4.58;87.73
76345;DHT22;65160;50.504;3.666;2023-02-01T05:30:35;4.55;87.90
76345;DHT22;65160;50.504;3.666;2023-02-01T05:33:02;4.49;87.76
76345;DHT22;65160;50.504;3.666;2023-02-01T05:35:27;4.48;88.05
76345;DHT22;65160;50.504;3.666;2023-02-01T05:37:53;4.49;88.01
76345;DHT22;65160;50.504;3.666;2023-02-01T05:40:18;4.49;88.01
76345;DHT22;65160;50.504;3.666;2023-02-01T05:42:44;4.44;87.98
76345;DHT22;65160;50.504;3.666;2023-02-01T05:45:09;4.44;88.47
76345;DHT22;65160;50.504;3.666;2023-02-01T05:47:35;4.38;88.50
76345;DHT22;65160;50.504;3.666;2023-02-01T05:50:01;4.31;88.52
76345;DHT22;65160;50.504;3.666;2023-02-01T05:52:27;4.34;88.59
76345;DHT22;65160;50.504;3.666;2023-02-01T05:54:52;4.37;88.57
76345;DHT22;65160;50.504;3.666;2023-02-01T05:57:18;4.41;89.33
76345;DHT22;65160;50.504;3.666;2023-02-01T05:59:43;4.31;88.96
76345;DHT22;65160;50.504;3.666;2023-02-01T06:02:14;4.30;88.75
76345;DHT22;65160;50.504;3.666;2023-02-01T06:04:40;4.28;89.09
76345;DHT22;65160;50.504;3.666;2023-02-01T06:07:07;4.28;89.01
76345;DHT22;65160;50.504;3.666;2023-02-01T06:09:33;4.25;88.98
76345;DHT22;65160;50.504;3.666;2023-02-01T06:11:59;4.20;89.36
76345;DHT22;65160;50.504;3.666;2023-02-01T06:14:26;4.16;89.49
76345;DHT22;65160;50.504;3.666;2023-02-01T06:16:53;4.16;89.61
76345;DHT22;65160;50.504;3.666;2023-02-01T06:19:19;4.13;89.61
76345;DHT22;65160;50.504;3.666;2023-02-01T06:21:44;4.08;89.65
76345;DHT22;65160;50.504;3.666;2023-02-01T06:24:10;4.13;89.58
76345;DHT22;65160;50.504;3.666;2023-02-01T06:26:36;4.08;89.73
76345;DHT22;65160;50.504;3.666;2023-02-01T06:29:02;4.06;89.90
76345;DHT22;65160;50.504;3.666;2023-02-01T06:31:28;4.04;89.67
76345;DHT22;65160;50.504;3.666;2023-02-01T06:33:53;4.04;89.73
76345;DHT22;65160;50.504;3.666;2023-02-01T06:36:19;4.01;89.80
76345;DHT22;65160;50.504;3.666;2023-02-01T06:38:47;4.00;89.94
76345;DHT22;65160;50.504;3.666;2023-02-01T06:41:13;4.00;89.84
76345;DHT22;65160;50.504;3.666;2023-02-01T06:43:38;4.06;89.93
76345;DHT22;65160;50.504;3.666;2023-02-01T06:46:06;4.03;89.94
76345;DHT22;65160;50.504;3.666;2023-02-01T06:48:33;4.01;89.83
76345;DHT22;65160;50.504;3.666;2023-02-01T06:50:58;3.98;89.99
76345;DHT22;65160;50.504;3.666;2023-02-01T06:53:24;3.93;90.09
76345;DHT22;65160;50.504;3.666;2023-02-01T06:56:00;3.93;90.15
76345;DHT22;65160;50.504;3.666;2023-02-01T06:58:30;3.97;90.10
76345;DHT22;65160;50.504;3.666;2023-02-01T07:00:57;4.01;89.90
76345;DHT22;65160;50.504;3.666;2023-02-01T07:03:23;3.97;89.93
76345;DHT22;65160;50.504;3.666;2023-02-01T07:05:48;4.01;89.83
76345;DHT22;65160;50.504;3.666;2023-02-01T07:08:14;3.98;89.89
76345;DHT22;65160;50.504;3.666;2023-02-01T07:10:39;4.04;89.82
76345;DHT22;65160;50.504;3.666;2023-02-01T07:13:05;4.00;89.83
76345;DHT22;65160;50.504;3.666;2023-02-01T07:15:30;4.06;89.72
76345;DHT22;65160;50.504;3.666;2023-02-01T07:17:56;4.11;89.55
76345;DHT22;65160;50.504;3.666;2023-02-01T07:20:22;4.10;89.49
76345;DHT22;65160;50.504;3.666;2023-02-01T07:22:48;4.07;89.59
76345;DHT22;65160;50.504;3.666;2023-02-01T07:25:14;4.04;89.77
76345;DHT22;65160;50.504;3.666;2023-02-01T07:27:39;4.01;89.84
76345;DHT22;65160;50.504;3.666;2023-02-01T07:30:05;4.01;89.83
76345;DHT22;65160;50.504;3.666;2023-02-01T07:32:31;4.00;90.10
76345;DHT22;65160;50.504;3.666;2023-02-01T07:34:57;4.01;90.19
76345;DHT22;65160;50.504;3.666;2023-02-01T07:37:23;4.08;89.89
76345;DHT22;65160;50.504;3.666;2023-02-01T07:39:50;4.16;89.67
76345;DHT22;65160;50.504;3.666;2023-02-01T07:42:16;4.18;89.46
76345;DHT22;65160;50.504;3.666;2023-02-01T07:44:41;4.18;89.51
76345;DHT22;65160;50.504;3.666;2023-02-01T07:47:07;4.17;89.72
76345;DHT22;65160;50.504;3.666;2023-02-01T07:49:32;4.21;89.76
76345;DHT22;65160;50.504;3.666;2023-02-01T07:51:58;4.27;89.61
76345;DHT22;65160;50.504;3.666;2023-02-01T07:54:23;4.30;89.46
76345;DHT22;65160;50.504;3.666;2023-02-01T07:56:49;4.41;89.19
76345;DHT22;65160;50.504;3.666;2023-02-01T07:59:14;4.51;88.94
76345;DHT22;65160;50.504;3.666;2023-02-01T08:01:41;4.58;88.81
76345;DHT22;65160;50.504;3.666;2023-02-01T08:04:10;4.66;88.65
76345;DHT22;65160;50.504;3.666;2023-02-01T08:06:37;4.72;88.57
76345;DHT22;65160;50.504;3.666;2023-02-01T08:09:03;4.82;88.33
76345;DHT22;65160;50.504;3.666;2023-02-01T08:11:30;4.83;88.05
76345;DHT22;65160;50.504;3.666;2023-02-01T08:13:55;4.91;88.19
76345;DHT22;65160;50.504;3.666;2023-02-01T08:16:22;5.00;87.57
76345;DHT22;65160;50.504;3.666;2023-02-01T08:18:48;5.07;87.37
76345;DHT22;65160;50.504;3.666;2023-02-01T08:21:17;5.16;87.40
76345;DHT22;65160;50.504;3.666;2023-02-01T08:23:44;5.18;87.19
76345;DHT22;65160;50.504;3.666;2023-02-01T08:26:19;5.28;87.41
76345;DHT22;65160;50.504;3.666;2023-02-01T08:28:51;5.35;86.88
76345;DHT22;65160;50.504;3.666;2023-02-01T08:31:19;5.38;87.05
76345;DHT22;65160;50.504;3.666;2023-02-01T08:33:50;5.37;86.32
76345;DHT22;65160;50.504;3.666;2023-02-01T08:36:16;5.39;86.86
76345;DHT22;65160;50.504;3.666;2023-02-01T08:38:41;5.39;86.32
76345;DHT22;65160;50.504;3.666;2023-02-01T08:41:12;5.38;86.44
76345;DHT22;65160;50.504;3.666;2023-02-01T08:43:38;5.47;86.52
76345;DHT22;65160;50.504;3.666;2023-02-01T08:46:04;5.48;86.20
76345;DHT22;65160;50.504;3.666;2023-02-01T08:48:30;5.49;86.44
76345;DHT22;65160;50.504;3.666;2023-02-01T08:50:56;5.59;86.26
76345;DHT22;65160;50.504;3.666;2023-02-01T08:53:22;5.60;86.37
76345;DHT22;65160;50.504;3.666;2023-02-01T08:55:47;5.69;86.02
76345;DHT22;65160;50.504;3.666;2023-02-01T08:58:13;5.80;86.17
76345;DHT22;65160;50.504;3.666;2023-02-01T09:00:39;5.82;85.55
76345;DHT22;65160;50.504;3.666;2023-02-01T09:03:05;5.93;85.32
76345;DHT22;65160;50.504;3.666;2023-02-01T09:05:33;6.13;84.57
76345;DHT22;65160;50.504;3.666;2023-02-01T09:07:59;6.34;83.55
76345;DHT22;65160;50.504;3.666;2023-02-01T09:10:24;6.56;83.56
76345;DHT22;65160;50.504;3.666;2023-02-01T09:12:51;6.79;81.87
76345;DHT22;65160;50.504;3.666;2023-02-01T09:15:17;6.99;81.33
76345;DHT22;65160;50.504;3.666;2023-02-01T09:17:42;7.13;81.13
76345;DHT22;65160;50.504;3.666;2023-02-01T09:20:09;7.11;80.38
76345;DHT22;65160;50.504;3.666;2023-02-01T09:22:34;7.07;81.16
76345;DHT22;65160;50.504;3.666;2023-02-01T09:25:00;7.00;81.27
76345;DHT22;65160;50.504;3.666;2023-02-01T09:27:25;7.01;80.67
76345;DHT22;65160;50.504;3.666;2023-02-01T09:29:51;6.96;80.53
76345;DHT22;65160;50.504;3.666;2023-02-01T09:32:21;7.06;80.79
76345;DHT22;65160;50.504;3.666;2023-02-01T09:34:52;7.04;81.35
76345;DHT22;65160;50.504;3.666;2023-02-01T09:37:18;7.16;81.26
76345;DHT22;65160;50.504;3.666;2023-02-01T09:39:44;7.21;80.24
76345;DHT22;65160;50.504;3.666;2023-02-01T09:42:37;7.38;80.14
76345;DHT22;65160;50.504;3.666;2023-02-01T09:47:52;7.55;78.82
76345;DHT22;65160;50.504;3.666;2023-02-01T09:50:19;7.72;78.66
76345;DHT22;65160;50.504;3.666;2023-02-01T09:52:57;7.87;77.09
76345;DHT22;65160;50.504;3.666;2023-02-01T09:55:27;8.24;77.21
76345;DHT22;65160;50.504;3.666;2023-02-01T09:57:56;8.59;75.00
76345;DHT22;65160;50.504;3.666;2023-02-01T10:00:27;9.00;73.86
76345;DHT22;65160;50.504;3.666;2023-02-01T10:02:55;9.30;72.73
76345;DHT22;65160;50.504;3.666;2023-02-01T10:10:48;8.58;73.65
76345;DHT22;65160;50.504;3.666;2023-02-01T10:13:35;8.62;73.11
76345;DHT22;65160;50.504;3.666;2023-02-01T10:16:13;8.59;72.17
76345;DHT22;65160;50.504;3.666;2023-02-01T10:19:26;8.59;72.52
76345;DHT22;65160;50.504;3.666;2023-02-01T10:24:47;8.65;71.55
76345;DHT22;65160;50.504;3.666;2023-02-01T10:27:19;8.94;70.64
76345;DHT22;65160;50.504;3.666;2023-02-01T10:29:54;9.07;70.33
76345;DHT22;65160;50.504;3.666;2023-02-01T10:32:31;9.35;69.96
76345;DHT22;65160;50.504;3.666;2023-02-01T10:35:04;9.81;69.08
76345;DHT22;65160;50.504;3.666;2023-02-01T10:37:35;9.78;68.54
76345;DHT22;65160;50.504;3.666;2023-02-01T10:42:37;10.18;67.41
76345;DHT22;65160;50.504;3.666;2023-02-01T10:45:05;10.51;66.08
76345;DHT22;65160;50.504;3.666;2023-02-01T10:47:31;10.23;66.02
76345;DHT22;65160;50.504;3.666;2023-02-01T10:52:38;10.14;67.04
76345;DHT22;65160;50.504;3.666;2023-02-01T10:55:29;10.02;66.66
76345;DHT22;65160;50.504;3.666;2023-02-01T10:58:05;10.02;67.30
76345;DHT22;65160;50.504;3.666;2023-02-01T11:05:56;10.02;66.90
76345;DHT22;65160;50.504;3.666;2023-02-01T11:08:22;9.93;66.50
76345;DHT22;65160;50.504;3.666;2023-02-01T11:10:57;10.06;67.00
76345;DHT22;65160;50.504;3.666;2023-02-01T11:13:28;10.44;66.27
76345;DHT22;65160;50.504;3.666;2023-02-01T11:15:56;10.55;66.10
76345;DHT22;65160;50.504;3.666;2023-02-01T11:18:28;10.31;65.44
76345;DHT22;65160;50.504;3.666;2023-02-01T11:20:53;10.82;65.45
76345;DHT22;65160;50.504;3.666;2023-02-01T11:23:23;10.72;64.83
76345;DHT22;65160;50.504;3.666;2023-02-01T11:25:55;10.88;64.10
76345;DHT22;65160;50.504;3.666;2023-02-01T11:28:24;11.19;63.34
76345;DHT22;65160;50.504;3.666;2023-02-01T11:30:53;11.00;62.62
76345;DHT22;65160;50.504;3.666;2023-02-01T11:33:22;10.91;61.27
76345;DHT22;65160;50.504;3.666;2023-02-01T11:35:51;11.00;63.08
76345;DHT22;65160;50.504;3.666;2023-02-01T11:38:25;11.13;61.34
76345;DHT22;65160;50.504;3.666;2023-02-01T11:40:52;11.05;61.53
76345;DHT22;65160;50.504;3.666;2023-02-01T11:43:26;11.02;61.79
76345;DHT22;65160;50.504;3.666;2023-02-01T11:45:58;10.92;62.81
76345;DHT22;65160;50.504;3.666;2023-02-01T11:48:25;11.06;61.29
76345;DHT22;65160;50.504;3.666;2023-02-01T11:51:07;11.05;62.34
76345;DHT22;65160;50.504;3.666;2023-02-01T11:56:26;11.22;61.55
76345;DHT22;65160;50.504;3.666;2023-02-01T12:04:35;11.53;60.01
76345;DHT22;65160;50.504;3.666;2023-02-01T12:07:19;11.07;60.66
76345;DHT22;65160;50.504;3.666;2023-02-01T12:10:18;10.97;61.27
76345;DHT22;65160;50.504;3.666;2023-02-01T12:15:56;11.19;60.93
76345;DHT22;65160;50.504;3.666;2023-02-01T12:18:58;11.37;60.12
76345;DHT22;65160;50.504;3.666;2023-02-01T12:22:18;11.43;60.06
76345;DHT22;65160;50.504;3.666;2023-02-01T12:24:46;11.17;59.55
76345;DHT22;65160;50.504;3.666;2023-02-01T12:32:53;11.16;60.89
76345;DHT22;65160;50.504;3.666;2023-02-01T12:41:53;11.05;61.32
76345;DHT22;65160;50.504;3.666;2023-02-01T12:44:08;11.15;61.20
76345;DHT22;65160;50.504;3.666;2023-02-01T12:46:41;10.96;61.01
76345;DHT22;65160;50.504;3.666;2023-02-01T12:49:19;10.80;62.01
76345;DHT22;65160;50.504;3.666;2023-02-01T12:51:52;10.72;62.77
76345;DHT22;65160;50.504;3.666;2023-02-01T12:54:22;10.33;63.53
76345;DHT22;65160;50.504;3.666;2023-02-01T12:56:59;10.38;64.20
76345;DHT22;65160;50.504;3.666;2023-02-01T12:59:51;10.72;63.79
76345;DHT22;65160;50.504;3.666;2023-02-01T13:02:44;11.02;63.71
76345;DHT22;65160;50.504;3.666;2023-02-01T13:05:18;11.20;62.28
76345;DHT22;65160;50.504;3.666;2023-02-01T13:07:58;11.55;62.58
76345;DHT22;65160;50.504;3.666;2023-02-01T13:10:45;11.62;61.08
76345;DHT22;65160;50.504;3.666;2023-02-01T13:13:39;11.77;61.53
76345;DHT22;65160;50.504;3.666;2023-02-01T13:16:27;11.77;60.34
76345;DHT22;65160;50.504;3.666;2023-02-01T13:19:04;11.77;60.76
76345;DHT22;65160;50.504;3.666;2023-02-01T13:21:38;12.03;60.21
76345;DHT22;65160;50.504;3.666;2023-02-01T13:24:04;12.06;59.88
76345;DHT22;65160;50.504;3.666;2023-02-01T13:26:32;11.81;59.86
76345;DHT22;65160;50.504;3.666;2023-02-01T13:29:09;11.71;60.67
76345;DHT22;65160;50.504;3.666;2023-02-01T13:31:55;11.57;60.43
76345;DHT22;65160;50.504;3.666;2023-02-01T13:37:36;11.16;63.10
76345;DHT22;65160;50.504;3.666;2023-02-01T13:42:52;10.68;63.22
76345;DHT22;65160;50.504;3.666;2023-02-01T13:45:42;10.59;63.94
76345;DHT22;65160;50.504;3.666;2023-02-01T13:48:39;10.75;64.18
76345;DHT22;65160;50.504;3.666;2023-02-01T13:51:03;10.80;63.41
76345;DHT22;65160;50.504;3.666;2023-02-01T13:53:34;10.89;62.91
76345;DHT22;65160;50.504;3.666;2023-02-01T13:56:20;10.62;64.06
76345;DHT22;65160;50.504;3.666;2023-02-01T13:58:48;10.82;63.83
76345;DHT22;65160;50.504;3.666;2023-02-01T14:03:59;11.30;62.08
76345;DHT22;65160;50.504;3.666;2023-02-01T14:19:27;12.29;59.61
76345;DHT22;65160;50.504;3.666;2023-02-01T14:21:55;12.78;59.72
76345;DHT22;65160;50.504;3.666;2023-02-01T14:24:29;13.19;56.79
76345;DHT22;65160;50.504;3.666;2023-02-01T14:26:57;13.24;57.50
76345;DHT22;65160;50.504;3.666;2023-02-01T14:29:37;13.44;54.99
76345;DHT22;65160;50.504;3.666;2023-02-01T14:32:16;13.51;55.76
76345;DHT22;65160;50.504;3.666;2023-02-01T14:42:29;12.74;57.39
76345;DHT22;65160;50.504;3.666;2023-02-01T14:47:45;13.67;56.11
76345;DHT22;65160;50.504;3.666;2023-02-01T14:55:43;12.50;59.55
76345;DHT22;65160;50.504;3.666;2023-02-01T15:08:57;10.83;64.65
76345;DHT22;65160;50.504;3.666;2023-02-01T15:11:24;10.67;65.93
76345;DHT22;65160;50.504;3.666;2023-02-01T15:13:51;10.36;66.59
76345;DHT22;65160;50.504;3.666;2023-02-01T15:16:20;10.13;67.59
76345;DHT22;65160;50.504;3.666;2023-02-01T15:18:47;10.03;67.77
76345;DHT22;65160;50.504;3.666;2023-02-01T15:21:17;9.93;68.47
76345;DHT22;65160;50.504;3.666;2023-02-01T15:23:43;9.86;68.32
76345;DHT22;65160;50.504;3.666;2023-02-01T15:26:11;9.75;68.60
76345;DHT22;65160;50.504;3.666;2023-02-01T15:28:49;9.66;69.20
76345;DHT22;65160;50.504;3.666;2023-02-01T15:31:14;9.63;69.00
76345;DHT22;65160;50.504;3.666;2023-02-01T15:33:55;9.54;70.04
76345;DHT22;65160;50.504;3.666;2023-02-01T15:36:21;9.48;69.99
76345;DHT22;65160;50.504;3.666;2023-02-01T15:39:14;9.49;70.24
76345;DHT22;65160;50.504;3.666;2023-02-01T15:44:45;9.42;70.70
76345;DHT22;65160;50.504;3.666;2023-02-01T15:47:26;9.45;71.02
76345;DHT22;65160;50.504;3.666;2023-02-01T15:49:54;9.47;71.45
76345;DHT22;65160;50.504;3.666;2023-02-01T15:54:53;9.44;71.62
76345;DHT22;65160;50.504;3.666;2023-02-01T15:57:34;9.49;71.51
76345;DHT22;65160;50.504;3.666;2023-02-01T16:00:03;9.48;72.24
76345;DHT22;65160;50.504;3.666;2023-02-01T16:02:35;9.49;71.55
76345;DHT22;65160;50.504;3.666;2023-02-01T16:05:04;9.54;72.41
76345;DHT22;65160;50.504;3.666;2023-02-01T16:07:32;9.37;72.46
76345;DHT22;65160;50.504;3.666;2023-02-01T16:10:00;9.31;72.56
76345;DHT22;65160;50.504;3.666;2023-02-01T16:12:44;9.31;72.82
76345;DHT22;65160;50.504;3.666;2023-02-01T16:15:10;9.35;73.06
76345;DHT22;65160;50.504;3.666;2023-02-01T16:17:35;9.34;73.37
76345;DHT22;65160;50.504;3.666;2023-02-01T16:20:01;9.32;73.14
76345;DHT22;65160;50.504;3.666;2023-02-01T16:22:26;9.31;73.66
76345;DHT22;65160;50.504;3.666;2023-02-01T16:24:52;9.30;73.21
76345;DHT22;65160;50.504;3.666;2023-02-01T16:27:17;9.17;73.73
76345;DHT22;65160;50.504;3.666;2023-02-01T16:29:43;9.17;73.93
76345;DHT22;65160;50.504;3.666;2023-02-01T16:32:16;9.20;73.91
76345;DHT22;65160;50.504;3.666;2023-02-01T16:34:42;9.16;74.12
76345;DHT22;65160;50.504;3.666;2023-02-01T16:37:12;9.16;73.95
76345;DHT22;65160;50.504;3.666;2023-02-01T16:39:38;9.11;74.00
76345;DHT22;65160;50.504;3.666;2023-02-01T16:42:11;9.07;74.32
76345;DHT22;65160;50.504;3.666;2023-02-01T16:44:37;9.04;74.94
76345;DHT22;65160;50.504;3.666;2023-02-01T16:47:19;8.99;74.56
76345;DHT22;65160;50.504;3.666;2023-02-01T16:49:45;8.99;75.01
76345;DHT22;65160;50.504;3.666;2023-02-01T16:52:25;8.97;74.99
76345;DHT22;65160;50.504;3.666;2023-02-01T16:54:51;8.99;75.46
76345;DHT22;65160;50.504;3.666;2023-02-01T16:57:19;9.00;75.01
76345;DHT22;65160;50.504;3.666;2023-02-01T16:59:47;8.96;74.96
76345;DHT22;65160;50.504;3.666;2023-02-01T17:02:16;8.90;75.20
76345;DHT22;65160;50.504;3.666;2023-02-01T17:04:43;8.92;75.45
76345;DHT22;65160;50.504;3.666;2023-02-01T17:07:12;8.90;75.39
76345;DHT22;65160;50.504;3.666;2023-02-01T17:09:39;8.84;75.74
76345;DHT22;65160;50.504;3.666;2023-02-01T17:12:05;8.80;75.96
76345;DHT22;65160;50.504;3.666;2023-02-01T17:14:33;8.80;75.70
76345;DHT22;65160;50.504;3.666;2023-02-01T17:17:01;8.80;76.18
76345;DHT22;65160;50.504;3.666;2023-02-01T17:19:27;8.82;75.97
76345;DHT22;65160;50.504;3.666;2023-02-01T17:21:54;8.77;76.10
76345;DHT22;65160;50.504;3.666;2023-02-01T17:24:24;8.73;76.05
76345;DHT22;65160;50.504;3.666;2023-02-01T17:26:50;8.75;76.45
76345;DHT22;65160;50.504;3.666;2023-02-01T17:29:17;8.73;76.41
76345;DHT22;65160;50.504;3.666;2023-02-01T17:31:45;8.73;76.25
76345;DHT22;65160;50.504;3.666;2023-02-01T17:34:13;8.75;76.58
76345;DHT22;65160;50.504;3.666;2023-02-01T17:36:40;8.73;76.66
76345;DHT22;65160;50.504;3.666;2023-02-01T17:39:06;8.76;76.69
76345;DHT22;65160;50.504;3.666;2023-02-01T17:41:32;8.69;76.77
76345;DHT22;65160;50.504;3.666;2023-02-01T17:43:57;8.66;77.05
76345;DHT22;65160;50.504;3.666;2023-02-01T17:46:23;8.64;77.20
76345;DHT22;65160;50.504;3.666;2023-02-01T17:48:52;8.66;77.25
76345;DHT22;65160;50.504;3.666;2023-02-01T17:51:24;8.66;77.18
76345;DHT22;65160;50.504;3.666;2023-02-01T17:53:49;8.64;77.25
76345;DHT22;65160;50.504;3.666;2023-02-01T17:56:20;8.66;77.59